ETHC 200020Z AUTO 25005KT 4500 // ////// 16/15 Q1020 /// ETHC 192320Z AUTO 26007KT 5000 // ////// 16/15 Q1019 /// ETHC 192220Z AUTO 25007KT 5000 // ////// 17/16 Q1019 /// ETHC 192120Z AUTO 24003KT 5000 // ////// 17/16 Q1018 /// ETHC 192020Z AUTO 22003KT 4800 // ////// 17/16 Q1018 /// ETHC 191920Z AUTO 16002KT 4600 // ////// 17/17 Q1017 /// ETHC 191820Z AUTO 17005KT 5000 // ////// 18/17 Q1017 /// ETHC 191720Z AUTO VRB02KT 5000 // ////// 18/16 Q1017 /// ETHC 191644Z 25007KT 8000 -SHRA BKN040CB BKN070 18/16 Q1018 RETSRA BLU ETHC 191632Z 25008KT 5000 TSRA BKN040CB BKN070 18/16 Q1018 WHT ETHC 191620Z 27007KT 8000 -TSRA BKN040CB BKN070 18/16 Q1018 RESHRA BLU ETHC 191553Z 24013G41KT 2000 +TSRA BKN045CB BKN100 24/14 Q1018 YLO ETHC 191543Z 19006KT 9999 -TSRA SCT050CB BKN100 BKN150 26/14 Q1016 BLU ETHC 191520Z 17010KT 9999 VCSH FEW050CB SCT100 BKN150 28/11 Q1015 BLU FCST CNL ETHC 191420Z 15011KT 9999 FEW130 BKN220 29/11 Q1015 BLU+BLU+ ETHC 191320Z 15010KT 9999 FEW130 BKN220 29/10 Q1016 BLU+BLU+ ETHC 191220Z 17009KT 9999 FEW150 BKN220 29/11 Q1016 BLU+BLU+ ETHC 191120Z 19009KT 9999 FEW150 BKN230 28/11 Q1017 BLU+BLU+ ETHC 191020Z 16011KT 9999 FEW150 BKN220 26/11 Q1018 BLU+BLU+ ETHC 190920Z 18006KT 9999 FEW160 BKN240 26/12 Q1019 BLU+BLU+ ETHC 190820Z 18011KT 9999 FEW160 BKN240 25/11 Q1019 BLU+BLU+ ETHC 190720Z 19008KT 9999 BKN250 24/13 Q1019 BLU+BLU+ ETHC 190620Z 17004KT 9999 FEW160 BKN270 22/14 Q1020 BLU+BLU+ ETHC 190520Z 11002KT 9999 BKN260 19/14 Q1019 BLU+BLU+ ETHC 190420Z 10001KT 9999 BKN260 17/13 Q1019 BLU+BLU+ ETHC 190320Z AUTO 09002KT 5000 // ////// 17/13 Q1019 /// ETHC 190220Z AUTO 09002KT 5000 // ////// 17/14 Q1019 /// ETHC 190120Z AUTO 09002KT 5000 // ////// 18/14 Q1020 /// ETHC 190020Z AUTO 10002KT 5000 // ////// 19/14 Q1020 /// ETHC 182320Z AUTO 09002KT 6000 // ////// 20/14 Q1020 /// ETHC 182220Z AUTO 13004KT 6000 // ////// 20/14 Q1020 /// ETHC 182120Z AUTO 12006KT 6000 // ////// 22/14 Q1020 /// ETHC 182020Z AUTO 12005KT 6000 // ////// 23/14 Q1020 /// ETHC 181920Z AUTO 12005KT 6000 // ////// 24/14 Q1020 /// ETHC 181820Z AUTO 14005KT 6000 // ////// 26/14 Q1020 /// ETHC 181720Z AUTO 17006KT 6000 // ////// 27/13 Q1020 /// ETHC 181620Z 19007KT 9999 SCT060 SCT370 28/12 Q1020 BLU+ ETHC 181520Z 16005KT 9999 SCT060 BKN370 28/12 Q1020 BLU+FCST CNL ETHC 181420Z 19008KT 9999 SCT062 BKN360 28/13 Q1020 BLU+BLU+ ETHC 181320Z 19009KT 9999 FEW060 BKN360 29/12 Q1021 BLU+BLU+

METAR Messwerte "CELLE (GER-ARMY)" ETHC

Zurück zur Übersicht

Ortsname
Ländercode / m ü. NN
Zeit Temperatur Taupunkt Rel.
Luftfeuchte
Luftdruck:
Altimeter
NN
Station
Wind in Beaufort
(Knoten)
Sichtweite
(Meter)
Wolken
(Meter über Grund)
Wettererscheinung
CELLE (GER-ARMY)
DE 35
Fr 20.05. 02:20161594 %1020
1020
1016
WSW 2 (5)4500  
CELLE (GER-ARMY)
DE 35
Fr 20.05. 01:20161594 %1019
1019
1015
W 3 (7)5000  
CELLE (GER-ARMY)
DE 35
Fr 20.05. 00:20171694 %1019
1019
1015
WSW 3 (7)5000  
CELLE (GER-ARMY)
DE 35
Do 19.05. 23:20171694 %1018
1018
1014
WSW 2 (3)5000  
CELLE (GER-ARMY)
DE 35
Do 19.05. 22:20171694 %1018
1018
1014
SW 2 (3)4800  
CELLE (GER-ARMY)
DE 35
Do 19.05. 21:201717100 %1017
1017
1013
SSO 1 (2)4600  
CELLE (GER-ARMY)
DE 35
Do 19.05. 20:20181794 %1017
1017
1013
S 2 (5)5000  
CELLE (GER-ARMY)
DE 35
Do 19.05. 19:20181688 %1017
1017
1013
Uml 1 (2)5000  
CELLE (GER-ARMY)
DE 35
Do 19.05. 18:44181688 %1018
1018
1014
WSW 3 (7)8000Stark bewölkt (2100)
Stark bewölkt Cb (1200)
Regen-Schauer (schwach)
CELLE (GER-ARMY)
DE 35
Do 19.05. 18:32181688 %1018
1018
1014
WSW 3 (8)5000Stark bewölkt (2100)
Stark bewölkt Cb (1200)
Gewitter mit Regen
CELLE (GER-ARMY)
DE 35
Do 19.05. 18:20181688 %1018
1018
1014
W 3 (7)8000Stark bewölkt (2100)
Stark bewölkt Cb (1200)
Gewitter mit Regen (schwach)
CELLE (GER-ARMY)
DE 35
Do 19.05. 17:53241454 %1018
1018
1014
WSW 4 (13) - 9 (41)2000Stark bewölkt (3000)
Stark bewölkt Cb (1400)
Gewitter mit Regen (stark)
CELLE (GER-ARMY)
DE 35
Do 19.05. 17:43261448 %1016
1016
1012
S 2 (6)>= 10000Stark bewölkt (4600)
Stark bewölkt (3000)
Wolkig Cb (1500)
Gewitter mit Regen (schwach)
CELLE (GER-ARMY)
DE 35
Do 19.05. 17:20281135 %1015
1015
1011
S 3 (10)>= 10000Stark bewölkt (4600)
Wolkig (3000)
Leicht bewölkt Cb (1500)
 
CELLE (GER-ARMY)
DE 35
Do 19.05. 16:20291133 %1015
1015
1011
SSO 4 (11)>= 10000Stark bewölkt (6700)
Leicht bewölkt (4000)
 
CELLE (GER-ARMY)
DE 35
Do 19.05. 15:20291031 %1016
1016
1012
SSO 3 (10)>= 10000Stark bewölkt (6700)
Leicht bewölkt (4000)
 
CELLE (GER-ARMY)
DE 35
Do 19.05. 14:20291133 %1016
1016
1012
S 3 (9)>= 10000Stark bewölkt (6700)
Leicht bewölkt (4600)
 
CELLE (GER-ARMY)
DE 35
Do 19.05. 13:20281135 %1017
1017
1013
S 3 (9)>= 10000Stark bewölkt (7000)
Leicht bewölkt (4600)
 
CELLE (GER-ARMY)
DE 35
Do 19.05. 12:20261139 %1018
1018
1014
SSO 4 (11)>= 10000Stark bewölkt (6700)
Leicht bewölkt (4600)
 
CELLE (GER-ARMY)
DE 35
Do 19.05. 11:20261242 %1019
1019
1015
S 2 (6)>= 10000Stark bewölkt (7300)
Leicht bewölkt (4900)
 
CELLE (GER-ARMY)
DE 35
Do 19.05. 10:20251141 %1019
1019
1015
S 4 (11)>= 10000Stark bewölkt (7300)
Leicht bewölkt (4900)
 
CELLE (GER-ARMY)
DE 35
Do 19.05. 09:20241350 %1019
1019
1015
S 3 (8)>= 10000Stark bewölkt (7600) 
CELLE (GER-ARMY)
DE 35
Do 19.05. 08:20221460 %1020
1020
1016
S 2 (4)>= 10000Stark bewölkt (8200)
Leicht bewölkt (4900)
 
CELLE (GER-ARMY)
DE 35
Do 19.05. 07:20191473 %1019
1019
1015
OSO 1 (2)>= 10000Stark bewölkt (7900) 
CELLE (GER-ARMY)
DE 35
Do 19.05. 06:20171377 %1019
1019
1015
O 1 (1)>= 10000Stark bewölkt (7900) 
CELLE (GER-ARMY)
DE 35
Do 19.05. 05:20171377 %1019
1019
1015
O 1 (2)5000  
CELLE (GER-ARMY)
DE 35
Do 19.05. 04:20171482 %1019
1019
1015
O 1 (2)5000  
CELLE (GER-ARMY)
DE 35
Do 19.05. 03:20181477 %1020
1020
1016
O 1 (2)5000  
CELLE (GER-ARMY)
DE 35
Do 19.05. 02:20191473 %1020
1020
1016
O 1 (2)5000  
CELLE (GER-ARMY)
DE 35
Do 19.05. 01:20201468 %1020
1020
1016
O 1 (2)6000  
CELLE (GER-ARMY)
DE 35
Do 19.05. 00:20201468 %1020
1020
1016
SO 2 (4)6000  
CELLE (GER-ARMY)
DE 35
Mi 18.05. 23:20221460 %1020
1020
1016
OSO 2 (6)6000  
CELLE (GER-ARMY)
DE 35
Mi 18.05. 22:20231457 %1020
1020
1016
OSO 2 (5)6000  
CELLE (GER-ARMY)
DE 35
Mi 18.05. 21:20241454 %1020
1020
1016
OSO 2 (5)6000  
CELLE (GER-ARMY)
DE 35
Mi 18.05. 20:20261448 %1020
1020
1016
SO 2 (5)6000  
CELLE (GER-ARMY)
DE 35
Mi 18.05. 19:20271342 %1020
1020
1016
S 2 (6)6000  
CELLE (GER-ARMY)
DE 35
Mi 18.05. 18:20281237 %1020
1020
1016
S 3 (7)>= 10000Wolkig (11000)
Wolkig (1800)
 
CELLE (GER-ARMY)
DE 35
Mi 18.05. 17:20281237 %1020
1020
1016
SSO 2 (5)>= 10000Stark bewölkt (11000)
Wolkig (1800)
 
CELLE (GER-ARMY)
DE 35
Mi 18.05. 16:20281340 %1020
1020
1016
S 3 (8)>= 10000Stark bewölkt (11000)
Wolkig (1900)
 
CELLE (GER-ARMY)
DE 35
Mi 18.05. 15:20291235 %1021
1021
1017
S 3 (9)>= 10000Stark bewölkt (11000)
Leicht bewölkt (1800)
 

Altimeter: Einstellung am Altimeter (Höhenmesser), die Höhe 0 muss auf diesen Luftdruckwert zeigen, damit das Gerät die Stationshöhe richtig anzeigt.

NN: Luftdruck reduziert auf "Normal Null", auf Meereshöhe, dieser von der Temperatur abhängige Wert wird bisweilen unkorrekt einfach als "Luftdruck" bezeichnet. Eigentlich nur eine fiktive Größe, die es erlaubt, Stationen auf unterschiedlichen Höhen miteinander zu vergleichen.

Station: Realer Luftdruck an der Station.